Time;durP1;ratioP1;P1;durP2;ratioP2;P2;SDS_P1;SDS_P2;PMS_P1;PMS_P2;Temp;Humidity;BMP_temperature;BMP_pressure;BME280_temperature;BME280_humidity;BME280_pressure;Samples;Min_cycle;Max_cycle;Signal;HPM_P1;HPM_P2
2022/10/15 00:02:14;;;;;;;27.05;15.50;;;;;;;16.90;68.45;100799.66;6243819;22;20015;-72
2022/10/15 00:04:40;;;;;;;30.23;16.55;;;;;;;16.88;69.39;100798.84;6251219;22;20069;-72
2022/10/15 00:07:05;;;;;;;31.17;15.60;;;;;;;16.90;69.20;100802.28;6248213;22;20000;-71
2022/10/15 00:09:31;;;;;;;24.45;14.43;;;;;;;16.96;69.57;100803.09;6238903;22;20891;-72
2022/10/15 00:11:56;;;;;;;29.33;15.90;;;;;;;16.97;69.26;100801.31;6247697;22;20008;-72
2022/10/15 00:14:21;;;;;;;29.17;15.60;;;;;;;16.97;69.21;100796.94;6239740;22;20340;-71
2022/10/15 00:16:47;;;;;;;31.83;16.05;;;;;;;16.93;69.07;100797.00;6246733;22;20038;-71
2022/10/15 00:19:12;;;;;;;28.45;16.13;;;;;;;16.79;69.53;100802.44;6246234;22;20742;-72
2022/10/15 00:21:38;;;;;;;28.50;16.40;;;;;;;16.86;69.58;100805.88;6240223;22;20097;-72
2022/10/15 00:24:04;;;;;;;27.48;15.68;;;;;;;16.91;69.26;100794.38;6246944;22;20039;-71
2022/10/15 00:26:30;;;;;;;28.83;15.23;;;;;;;17.00;69.14;100791.63;6241739;22;20011;-72
2022/10/15 00:29:01;;;;;;;29.52;15.80;;;;;;;17.00;69.21;100788.13;6248772;22;20489;-72
2022/10/15 00:31:28;;;;;;;26.35;15.07;;;;;;;16.99;69.47;100797.78;6240208;22;20010;-72
2022/10/15 00:33:56;;;;;;;29.38;15.93;;;;;;;17.03;69.09;100790.69;6249686;22;20054;-72
2022/10/15 00:36:27;;;;;;;26.38;15.20;;;;;;;17.10;69.01;100783.59;6243306;22;20011;-72
2022/10/15 00:38:53;;;;;;;29.58;16.38;;;;;;;17.00;69.00;100785.50;6244619;22;20065;-72
2022/10/15 00:41:31;;;;;;;28.60;15.88;;;;;;;17.03;69.02;100785.44;6251270;22;20037;-72
2022/10/15 00:43:59;;;;;;;26.45;16.10;;;;;;;17.01;69.30;100780.22;6248654;22;20023;-72
2022/10/15 00:46:34;;;;;;;28.02;15.27;;;;;;;16.96;69.36;100784.66;6251906;22;20090;-72
2022/10/15 00:49:28;;;;;;;27.58;16.58;;;;;;;16.99;69.35;100768.81;6251598;22;20007;-71
2022/10/15 00:52:02;;;;;;;30.98;16.17;;;;;;;17.06;69.33;100779.28;6245638;22;20008;-71
2022/10/15 00:54:34;;;;;;;28.67;16.10;;;;;;;17.08;69.25;100778.34;6250871;22;20010;-72
2022/10/15 00:56:59;;;;;;;28.15;16.38;;;;;;;17.08;69.22;100775.69;6246740;22;20108;-72
2022/10/15 00:59:27;;;;;;;29.63;16.38;;;;;;;16.99;69.49;100787.25;6246790;22;20301;-72
2022/10/15 01:01:53;;;;;;;27.45;16.65;;;;;;;17.03;69.69;100772.25;6246017;22;20099;-71
2022/10/15 01:04:19;;;;;;;29.30;16.77;;;;;;;17.11;69.25;100770.41;6251359;22;20420;-71
2022/10/15 01:06:45;;;;;;;27.40;16.25;;;;;;;17.08;69.51;100775.69;6250742;22;20510;-72
2022/10/15 01:09:12;;;;;;;28.88;16.52;;;;;;;17.10;69.64;100770.41;6248466;22;20015;-71
2022/10/15 01:11:46;;;;;;;31.30;17.33;;;;;;;17.13;69.44;100770.38;6247714;22;20300;-71
2022/10/15 01:14:24;;;;;;;29.85;16.50;;;;;;;17.14;69.47;100772.13;6247927;22;20042;-72
2022/10/15 01:16:58;;;;;;;30.92;17.27;;;;;;;17.17;69.24;100770.31;6250262;22;20008;-71
2022/10/15 01:19:36;;;;;;;28.58;16.52;;;;;;;17.16;69.13;100770.31;6244420;22;20007;-71
2022/10/15 01:22:47;;;;;;;29.75;16.98;;;;;;;17.12;69.15;100766.00;6251138;22;20008;-71
2022/10/15 01:25:42;;;;;;;28.10;16.55;;;;;;;17.10;69.25;100752.84;6249206;22;20403;-70
2022/10/15 01:28:26;;;;;;;31.63;17.73;;;;;;;17.03;69.86;100753.81;6191627;22;20483;-72
2022/10/15 01:31:09;;;;;;;29.70;18.15;;;;;;;17.06;69.84;100753.81;6251116;22;20008;-72
2022/10/15 01:33:44;;;;;;;29.90;16.67;;;;;;;17.12;70.16;100753.72;6244739;22;20266;-71
2022/10/15 01:36:18;;;;;;;34.13;18.50;;;;;;;17.11;69.98;100745.81;6248964;22;20007;-72
2022/10/15 01:38:59;;;;;;;35.83;18.55;;;;;;;17.00;70.28;100738.97;6247816;22;20007;-72
2022/10/15 01:41:38;;;;;;;34.33;19.17;;;;;;;17.08;70.46;100743.25;6222696;22;20011;-71
2022/10/15 01:44:11;;;;;;;33.67;18.88;;;;;;;17.10;69.97;100742.31;6250708;22;20436;-73
2022/10/15 01:46:44;;;;;;;32.00;18.35;;;;;;;17.07;70.14;100737.09;6253648;22;20098;-72
2022/10/15 01:49:12;;;;;;;35.88;19.60;;;;;;;17.07;69.84;100746.78;6254365;22;19999;-72
2022/10/15 01:51:40;;;;;;;34.10;18.85;;;;;;;17.06;69.96;100742.38;6242113;22;20335;-71
2022/10/15 01:54:09;;;;;;;32.70;18.88;;;;;;;16.99;69.78;100734.59;6250118;22;20443;-71
2022/10/15 01:56:36;;;;;;;35.00;19.65;;;;;;;16.95;69.73;100734.66;6242634;22;20007;-72
2022/10/15 01:59:04;;;;;;;37.95;20.73;;;;;;;16.80;70.19;100721.69;6249864;22;20038;-72
2022/10/15 02:01:29;;;;;;;37.17;19.60;;;;;;;16.73;70.49;100726.19;6241876;22;20337;-72
2022/10/15 02:03:55;;;;;;;35.38;19.85;;;;;;;16.74;70.47;100729.69;6251970;22;20439;-72
2022/10/15 02:06:43;;;;;;;40.92;20.15;;;;;;;16.71;70.14;100725.31;6245389;22;20007;-71
2022/10/15 02:09:39;;;;;;;38.40;20.45;;;;;;;16.63;70.23;100711.41;6244734;22;20545;-72
2022/10/15 02:12:46;;;;;;;35.67;18.35;;;;;;;16.52;70.48;100722.06;6249700;22;20177;-72
2022/10/15 02:15:37;;;;;;;37.78;20.00;;;;;;;16.51;70.37;100716.81;6216225;22;20015;-72
2022/10/15 02:18:20;;;;;;;38.80;20.48;;;;;;;16.38;71.47;100715.22;6248442;22;20424;-71
2022/10/15 02:20:56;;;;;;;40.38;21.40;;;;;;;16.41;71.50;100707.28;6243713;22;20503;-71
2022/10/15 02:23:40;;;;;;;40.08;20.48;;;;;;;16.40;71.71;100705.56;6245427;22;20007;-71
2022/10/15 02:26:09;;;;;;;45.58;22.17;;;;;;;16.35;71.23;100695.09;6239245;22;20364;-72
2022/10/15 02:28:39;;;;;;;37.78;20.00;;;;;;;16.39;71.41;100701.19;6248429;22;20004;-72
2022/10/15 02:31:07;;;;;;;40.78;21.38;;;;;;;16.41;71.89;100694.13;6248437;22;20069;-72
2022/10/15 02:33:34;;;;;;;39.33;20.23;;;;;;;16.43;71.66;100692.34;6214706;22;20011;-71
2022/10/15 02:36:00;;;;;;;40.80;21.42;;;;;;;16.44;71.34;100683.56;6246490;22;20100;-72
2022/10/15 02:38:30;;;;;;;45.60;21.92;;;;;;;16.44;71.79;100689.72;6246408;22;20859;-71
2022/10/15 02:40:55;;;;;;;41.20;21.02;;;;;;;16.46;71.84;100677.41;6251335;22;20011;-73
2022/10/15 02:43:21;;;;;;;47.25;23.05;;;;;;;16.42;72.20;100678.31;6246639;22;20004;-72
2022/10/15 02:45:47;;;;;;;42.05;21.92;;;;;;;16.44;71.81;100678.31;6244831;22;20015;-73
2022/10/15 02:48:12;;;;;;;45.03;21.58;;;;;;;16.43;71.66;100676.56;6251075;22;20007;-72
2022/10/15 02:50:38;;;;;;;43.10;22.20;;;;;;;16.41;71.67;100675.72;6245546;22;20487;-71
2022/10/15 02:53:03;;;;;;;44.55;22.38;;;;;;;16.33;72.57;100682.84;6247093;22;20004;-72
2022/10/15 02:55:29;;;;;;;41.05;20.63;;;;;;;16.38;71.98;100679.28;6238148;22;20015;-71
2022/10/15 02:57:54;;;;;;;49.53;23.67;;;;;;;16.35;72.27;100675.78;6250083;22;20007;-70
2022/10/15 03:00:19;;;;;;;43.60;21.25;;;;;;;16.39;72.44;100672.25;6250134;22;20012;-71
2022/10/15 03:02:45;;;;;;;43.58;21.75;;;;;;;16.40;71.94;100666.09;6247892;22;20336;-72
2022/10/15 03:05:10;;;;;;;47.20;22.00;;;;;;;16.31;72.15;100661.81;6248677;22;20443;-72
2022/10/15 03:07:36;;;;;;;42.63;20.77;;;;;;;16.32;71.84;100657.44;6240924;22;20243;-71
2022/10/15 03:10:01;;;;;;;51.38;23.65;;;;;;;16.17;72.54;100658.50;6250655;22;20034;-72
2022/10/15 03:12:27;;;;;;;52.30;23.55;;;;;;;16.17;73.06;100661.13;6248006;22;20110;-71
2022/10/15 03:14:53;;;;;;;50.13;23.30;;;;;;;16.16;73.07;100656.78;6242280;22;20007;-72
2022/10/15 03:17:19;;;;;;;50.95;23.75;;;;;;;16.23;72.71;100658.41;6248821;22;20356;-72
2022/10/15 03:19:44;;;;;;;49.90;23.08;;;;;;;16.23;72.60;100667.19;6238148;22;20022;-72
2022/10/15 03:22:10;;;;;;;50.90;22.35;;;;;;;16.21;72.68;100662.84;6251571;22;20424;-71
2022/10/15 03:24:35;;;;;;;54.55;23.95;;;;;;;16.17;72.89;100664.63;6248760;22;20096;-72
2022/10/15 03:27:01;;;;;;;48.03;23.08;;;;;;;16.22;72.58;100659.31;6215591;22;20004;-72
2022/10/15 03:29:26;;;;;;;46.75;22.33;;;;;;;16.18;72.67;100658.47;6243414;22;20067;-72
2022/10/15 03:31:51;;;;;;;42.72;21.23;;;;;;;16.20;72.19;100656.72;6240601;22;20818;-72
2022/10/15 03:34:17;;;;;;;44.30;21.05;;;;;;;16.19;72.23;100652.34;6246538;22;20031;-71
2022/10/15 03:36:42;;;;;;;42.25;20.73;;;;;;;16.15;72.39;100650.66;6247922;22;20223;-71
2022/10/15 03:39:08;;;;;;;47.55;21.83;;;;;;;16.14;72.16;100661.19;6241849;22;20016;-72
2022/10/15 03:41:33;;;;;;;48.83;22.38;;;;;;;16.09;72.81;100642.84;6246038;22;20034;-72
2022/10/15 03:44:07;;;;;;;52.22;23.48;;;;;;;16.14;72.34;100654.16;6217373;22;20537;-72
2022/10/15 03:46:33;;;;;;;46.97;21.40;;;;;;;16.13;72.02;100656.81;6220335;22;20336;-73
2022/10/15 03:48:58;;;;;;;47.60;22.88;;;;;;;16.05;72.43;100653.38;6246579;22;20008;-71
2022/10/15 03:51:23;;;;;;;59.28;24.45;;;;;;;15.99;72.65;100671.88;6241296;22;20057;-70
2022/10/15 03:53:49;;;;;;;54.95;24.30;;;;;;;15.97;72.70;100661.41;6250575;22;20027;-71
2022/10/15 03:56:14;;;;;;;56.33;24.92;;;;;;;15.99;72.73;100669.25;6243430;22;20235;-71
2022/10/15 03:58:40;;;;;;;52.70;23.80;;;;;;;15.98;72.82;100673.63;6248756;22;20018;-71
2022/10/15 04:01:10;;;;;;;57.95;25.33;;;;;;;15.93;73.17;100675.44;6246862;22;20083;-72
2022/10/15 04:03:36;;;;;;;53.30;24.33;;;;;;;16.02;73.46;100675.34;6240691;22;20093;-71
2022/10/15 04:06:02;;;;;;;63.30;26.23;;;;;;;16.07;73.68;100677.91;6249749;22;20419;-72
2022/10/15 04:08:28;;;;;;;55.40;24.10;;;;;;;16.20;73.59;100679.50;6245000;22;20061;-72
2022/10/15 04:10:53;;;;;;;59.42;23.58;;;;;;;16.28;74.33;100677.66;6246687;22;20004;-73
2022/10/15 04:13:20;;;;;;;57.35;25.30;;;;;;;16.23;73.68;100671.56;6249699;22;20008;-71
2022/10/15 04:15:45;;;;;;;60.67;25.88;;;;;;;16.31;73.55;100674.09;6241274;22;20459;-72
2022/10/15 04:18:10;;;;;;;57.70;25.23;;;;;;;16.36;73.62;100683.66;6223509;22;20004;-72
2022/10/15 04:20:36;;;;;;;54.33;23.95;;;;;;;16.42;73.42;100674.81;6243321;22;20007;-71
2022/10/15 04:23:02;;;;;;;53.08;24.30;;;;;;;16.40;73.87;100669.59;6246165;22;20004;-73
2022/10/15 04:25:28;;;;;;;54.85;24.40;;;;;;;16.42;73.64;100672.19;6236701;22;20007;-72
2022/10/15 04:27:53;;;;;;;51.60;23.17;;;;;;;16.52;73.42;100669.44;6250153;22;20004;-72
2022/10/15 04:30:18;;;;;;;53.38;24.00;;;;;;;16.51;73.61;100667.69;6250015;22;20007;-73
2022/10/15 04:32:44;;;;;;;55.13;25.17;;;;;;;16.38;74.30;100666.13;6240950;22;20015;-71
2022/10/15 04:35:09;;;;;;;50.28;23.70;;;;;;;16.49;73.94;100658.94;6245572;22;20006;-72
2022/10/15 04:37:35;;;;;;;54.15;25.65;;;;;;;16.46;73.70;100650.22;6212289;22;20018;-72
2022/10/15 04:40:01;;;;;;;54.92;24.65;;;;;;;16.58;73.72;100653.56;6247585;22;20454;-73
2022/10/15 04:42:28;;;;;;;50.95;23.90;;;;;;;16.62;73.67;100657.03;6247259;22;20306;-72
2022/10/15 04:44:54;;;;;;;44.83;22.45;;;;;;;16.71;73.24;100662.16;6240910;22;20609;-73
2022/10/15 04:47:19;;;;;;;48.28;23.90;;;;;;;16.62;73.33;100660.53;6246759;22;20035;-71
2022/10/15 04:49:45;;;;;;;49.67;24.48;;;;;;;16.59;72.74;100654.41;6242633;22;20833;-72
2022/10/15 04:52:10;;;;;;;52.75;24.92;;;;;;;16.52;73.45;100656.28;6222558;22;20015;-72
2022/10/15 04:54:35;;;;;;;48.50;23.85;;;;;;;16.55;73.59;100656.22;6220210;22;20514;-71
2022/10/15 04:57:05;;;;;;;52.58;23.92;;;;;;;16.55;73.45;100652.72;6244306;22;20480;-71
2022/10/15 04:59:31;;;;;;;46.30;22.20;;;;;;;16.56;73.31;100654.47;6243126;22;20043;-73
2022/10/15 05:01:56;;;;;;;55.55;24.70;;;;;;;16.48;73.91;100653.69;6244064;22;20101;-71
2022/10/15 05:04:21;;;;;;;49.58;22.63;;;;;;;16.62;73.50;100651.78;6245706;22;20016;-71
2022/10/15 05:06:47;;;;;;;46.22;22.08;;;;;;;16.62;73.14;100652.63;6248324;22;20015;-72
2022/10/15 05:09:12;;;;;;;45.40;22.20;;;;;;;16.61;73.14;100644.75;6245323;22;20008;-73
2022/10/15 05:11:37;;;;;;;47.63;22.75;;;;;;;16.54;73.57;100643.06;6245966;22;20220;-73
2022/10/15 05:14:04;;;;;;;49.58;23.65;;;;;;;16.52;73.71;100650.13;6243465;22;20440;-72
2022/10/15 05:16:29;;;;;;;53.40;24.27;;;;;;;16.48;73.94;100646.66;6244383;22;20027;-72
2022/10/15 05:19:03;;;;;;;52.03;23.80;;;;;;;16.50;73.64;100644.91;6246842;22;20008;-72
2022/10/15 05:21:30;;;;;;;48.20;23.00;;;;;;;16.50;73.67;100641.38;6239169;22;20014;-72
2022/10/15 05:23:57;;;;;;;46.10;22.17;;;;;;;16.52;72.69;100639.63;6248308;22;19999;-71
2022/10/15 05:26:23;;;;;;;53.47;23.90;;;;;;;16.39;73.36;100632.78;6239930;22;20033;-71
2022/10/15 05:28:49;;;;;;;54.60;23.20;;;;;;;16.33;73.37;100628.47;6250006;22;20330;-71
2022/10/15 05:31:18;;;;;;;51.85;24.08;;;;;;;16.31;73.17;100637.28;6249232;22;20042;-72
2022/10/15 05:33:43;;;;;;;49.08;21.70;;;;;;;16.29;72.73;100629.41;6238175;22;20318;-72
2022/10/15 05:36:09;;;;;;;53.60;23.25;;;;;;;16.25;72.69;100630.34;6247410;22;20007;-72
2022/10/15 05:38:35;;;;;;;46.47;20.35;;;;;;;16.23;72.55;100629.47;6247198;22;20011;-71
2022/10/15 05:41:00;;;;;;;47.10;21.13;;;;;;;16.16;72.40;100628.69;6251170;22;20076;-72
2022/10/15 05:43:26;;;;;;;47.75;22.33;;;;;;;16.16;72.53;100630.47;6239546;22;20210;-72
2022/10/15 05:45:55;;;;;;;53.13;23.65;;;;;;;16.13;73.25;100622.63;6246887;22;20033;-73
2022/10/15 05:48:21;;;;;;;49.80;23.30;;;;;;;16.10;73.13;100636.66;6245815;22;20011;-72
2022/10/15 05:50:46;;;;;;;55.42;23.80;;;;;;;16.17;73.07;100633.06;6218595;22;20111;-72
2022/10/15 05:53:12;;;;;;;61.70;25.13;;;;;;;16.15;73.77;100634.00;6222434;22;20398;-72
2022/10/15 05:55:37;;;;;;;55.63;23.83;;;;;;;16.25;73.93;100635.59;6239561;22;20508;-73
2022/10/15 05:58:03;;;;;;;54.05;23.50;;;;;;;16.27;73.71;100632.97;6250183;22;20090;-73
2022/10/15 06:00:29;;;;;;;60.97;25.30;;;;;;;16.29;74.08;100641.69;6219815;22;20074;-71
2022/10/15 06:02:54;;;;;;;60.92;25.48;;;;;;;16.30;74.18;100640.78;6242807;22;20413;-72
2022/10/15 06:05:20;;;;;;;64.70;26.33;;;;;;;16.33;74.41;100636.38;6241496;22;20498;-72
2022/10/15 06:07:45;;;;;;;58.88;23.85;;;;;;;16.45;74.28;100630.06;6244589;22;20051;-72
2022/10/15 06:10:10;;;;;;;58.08;24.05;;;;;;;16.36;74.94;100636.31;6222749;22;20003;-73
2022/10/15 06:12:38;;;;;;;56.17;23.80;;;;;;;16.43;74.63;100635.34;6252090;22;20526;-72
2022/10/15 06:15:04;;;;;;;53.78;22.25;;;;;;;16.46;74.53;100630.06;6236659;22;20018;-72
2022/10/15 06:17:29;;;;;;;50.28;22.13;;;;;;;16.59;74.36;100630.72;6247232;22;20007;-72
2022/10/15 06:19:54;;;;;;;51.20;21.77;;;;;;;16.64;74.28;100621.03;6220061;22;20022;-72
2022/10/15 06:22:20;;;;;;;47.30;20.77;;;;;;;16.66;74.04;100621.88;6248847;22;20030;-71
2022/10/15 06:24:45;;;;;;;44.63;19.98;;;;;;;16.68;74.37;100619.22;6247983;22;20031;-72
2022/10/15 06:27:11;;;;;;;45.70;20.52;;;;;;;16.73;73.47;100622.66;6241529;22;20039;-72
2022/10/15 06:29:37;;;;;;;43.85;19.73;;;;;;;16.77;73.77;100619.94;6247115;22;20004;-72
2022/10/15 06:32:03;;;;;;;45.67;19.90;;;;;;;16.67;73.73;100626.25;6193957;22;20030;-72
2022/10/15 06:34:28;;;;;;;43.47;19.25;;;;;;;16.58;73.84;100621.97;6249013;22;20435;-72
2022/10/15 06:36:53;;;;;;;38.78;18.67;;;;;;;16.77;73.73;100627.81;6250417;22;20436;-72
2022/10/15 06:39:19;;;;;;;39.08;18.45;;;;;;;16.76;73.86;100622.59;6242908;22;20008;-72
2022/10/15 06:41:44;;;;;;;38.83;17.92;;;;;;;16.78;73.95;100629.56;6245305;22;20359;-72
2022/10/15 06:44:10;;;;;;;40.90;17.65;;;;;;;16.71;74.13;100633.19;6244491;22;20018;-71
2022/10/15 06:46:36;;;;;;;37.47;17.10;;;;;;;16.75;74.26;100637.53;6220791;22;20008;-72
2022/10/15 06:49:02;;;;;;;40.28;17.73;;;;;;;16.78;73.78;100640.09;6220643;22;20008;-72
2022/10/15 06:51:27;;;;;;;39.70;17.95;;;;;;;16.92;73.71;100630.22;6241535;22;20291;-71
2022/10/15 06:53:52;;;;;;;39.28;16.73;;;;;;;17.10;73.72;100623.78;6248304;22;20007;-71
2022/10/15 06:56:18;;;;;;;42.92;17.90;;;;;;;16.97;73.13;100627.50;6241581;22;20411;-71
2022/10/15 06:58:43;;;;;;;39.00;17.38;;;;;;;17.02;73.39;100626.53;6249187;22;20061;-71
2022/10/15 07:01:09;;;;;;;42.42;18.23;;;;;;;16.89;73.94;100634.69;6223937;22;20086;-71
2022/10/15 07:03:37;;;;;;;42.20;17.77;;;;;;;17.04;73.81;100632.66;6240776;22;20011;-72
2022/10/15 07:06:05;;;;;;;41.72;17.98;;;;;;;17.11;73.66;100624.66;6245788;22;20359;-72
2022/10/15 07:08:30;;;;;;;43.67;18.15;;;;;;;17.10;73.49;100629.06;6243361;22;20511;-71
2022/10/15 07:10:56;;;;;;;44.22;18.35;;;;;;;17.24;72.77;100629.69;6220621;22;20439;-72
2022/10/15 07:13:21;;;;;;;41.88;17.95;;;;;;;17.27;73.28;100628.75;6215508;22;20038;-71
2022/10/15 07:15:52;;;;;;;46.35;20.00;;;;;;;17.15;73.51;100623.69;6242494;22;20018;-71
2022/10/15 07:18:18;;;;;;;46.63;19.58;;;;;;;17.18;73.49;100621.91;6248774;22;20011;-71
2022/10/15 07:20:44;;;;;;;45.78;19.83;;;;;;;17.19;72.76;100626.28;6217168;22;20182;-71
2022/10/15 07:23:09;;;;;;;45.28;20.15;;;;;;;17.06;73.61;100626.50;6248942;22;20014;-71
2022/10/15 07:25:35;;;;;;;46.38;20.27;;;;;;;17.26;72.97;100619.13;6232996;22;20018;-71
2022/10/15 07:28:00;;;;;;;48.50;20.20;;;;;;;17.40;72.89;100609.19;6247400;22;20035;-71
2022/10/15 07:30:26;;;;;;;44.63;20.17;;;;;;;17.45;72.14;100604.69;6246311;22;20049;-71
2022/10/15 07:32:52;;;;;;;42.53;19.88;;;;;;;17.31;72.68;100607.59;6244644;22;20012;-71
2022/10/15 07:35:18;;;;;;;43.83;20.30;;;;;;;17.33;72.64;100605.78;6248507;22;20069;-72
2022/10/15 07:37:46;;;;;;;39.08;18.75;;;;;;;17.44;72.40;100603.81;6241774;22;20013;-72
2022/10/15 07:40:11;;;;;;;36.40;17.83;;;;;;;17.26;72.82;100608.59;6248534;22;20461;-72
2022/10/15 07:42:37;;;;;;;34.22;17.02;;;;;;;17.40;71.99;100611.81;6245834;22;19999;-72
2022/10/15 07:45:03;;;;;;;31.70;16.30;;;;;;;17.44;71.38;100614.38;6218801;22;20012;-72
2022/10/15 07:47:28;;;;;;;32.38;16.85;;;;;;;17.44;71.46;100619.63;6245017;22;20510;-72
2022/10/15 07:49:54;;;;;;;30.90;16.17;;;;;;;17.30;72.01;100611.13;6249162;22;20018;-73
2022/10/15 07:52:19;;;;;;;31.05;15.52;;;;;;;17.37;71.41;100614.53;6252485;22;20094;-72
2022/10/15 07:54:44;;;;;;;28.63;15.40;;;;;;;17.56;71.47;100600.09;6248561;22;20139;-72
2022/10/15 07:57:09;;;;;;;31.02;15.73;;;;;;;17.65;71.54;100594.66;6241972;22;20011;-72
2022/10/15 07:59:35;;;;;;;28.55;16.05;;;;;;;17.50;70.77;100597.59;6245768;22;20015;-70
2022/10/15 08:02:00;;;;;;;33.15;16.92;;;;;;;17.69;70.69;100592.81;6240383;22;20023;-72
2022/10/15 08:04:26;;;;;;;33.08;17.00;;;;;;;17.74;70.24;100593.63;6244690;22;20047;-72
2022/10/15 08:06:51;;;;;;;33.10;16.73;;;;;;;17.90;69.82;100583.63;6247416;22;20012;-71
2022/10/15 08:09:17;;;;;;;31.13;17.15;;;;;;;17.95;69.49;100587.03;6233031;22;20114;-72
2022/10/15 08:11:42;;;;;;;35.42;17.55;;;;;;;18.02;69.13;100599.19;6241334;22;20515;-72
2022/10/15 08:14:08;;;;;;;38.63;17.70;;;;;;;17.92;69.38;100593.25;6215000;22;20012;-72
2022/10/15 08:16:34;;;;;;;40.60;19.00;;;;;;;17.81;69.98;100580.25;6245606;22;20008;-71
2022/10/15 08:18:59;;;;;;;38.15;18.52;;;;;;;18.09;69.50;100582.31;6245591;22;20065;-71
2022/10/15 08:21:25;;;;;;;37.05;18.13;;;;;;;18.42;69.21;100588.63;6236738;22;20007;-73
2022/10/15 08:23:51;;;;;;;36.38;18.27;;;;;;;18.62;68.13;100575.84;6248172;22;20102;-72
2022/10/15 08:26:16;;;;;;;36.50;19.10;;;;;;;18.74;67.15;100579.94;6211665;22;20110;-72
2022/10/15 08:28:42;;;;;;;38.67;19.10;;;;;;;18.80;67.03;100580.66;6249528;22;20007;-72
2022/10/15 08:31:07;;;;;;;41.05;20.48;;;;;;;18.67;66.64;100578.34;6249084;22;20010;-72
2022/10/15 08:33:34;;;;;;;41.13;19.92;;;;;;;19.03;66.19;100569.50;6212150;22;20043;-72
2022/10/15 08:35:59;;;;;;;36.45;18.90;;;;;;;18.90;66.14;100566.34;6247586;22;20678;-72
2022/10/15 08:38:25;;;;;;;36.95;19.35;;;;;;;19.13;66.02;100555.16;6241118;22;20015;-72
2022/10/15 08:40:56;;;;;;;37.72;20.30;;;;;;;19.25;65.61;100565.41;6246478;22;20376;-72
2022/10/15 08:43:27;;;;;;;36.65;19.50;;;;;;;19.19;65.02;100564.69;6216485;22;20388;-72
2022/10/15 08:45:58;;;;;;;33.97;19.42;;;;;;;19.17;65.40;100558.56;6247321;22;20068;-72
2022/10/15 08:48:31;;;;;;;34.55;19.42;;;;;;;19.23;65.47;100558.41;6247430;22;20452;-73
2022/10/15 08:51:08;;;;;;;34.08;19.45;;;;;;;19.27;65.20;100568.84;6241313;22;20007;-71
2022/10/15 08:53:39;;;;;;;33.15;18.60;;;;;;;19.05;66.04;100568.56;6244784;22;20304;-72
2022/10/15 08:56:16;;;;;;;31.38;18.05;;;;;;;19.21;65.70;100568.19;6240937;22;20432;-73
2022/10/15 08:58:52;;;;;;;31.50;17.90;;;;;;;19.31;65.61;100559.94;6246726;22;20091;-72
2022/10/15 09:01:33;;;;;;;32.45;18.15;;;;;;;19.11;65.79;100559.59;6250516;22;20082;-72
2022/10/15 09:04:07;;;;;;;25.55;16.48;;;;;;;19.14;65.94;100559.53;6248195;22;20019;-72
2022/10/15 09:06:36;;;;;;;29.08;17.42;;;;;;;19.41;65.73;100566.72;6247438;22;20004;-72
2022/10/15 09:09:13;;;;;;;25.13;16.02;;;;;;;19.40;65.43;100561.47;6216596;22;20427;-72
2022/10/15 09:11:41;;;;;;;25.35;16.13;;;;;;;19.11;65.51;100551.69;6246968;22;20988;-73
2022/10/15 09:14:11;;;;;;;24.00;15.32;;;;;;;19.02;66.31;100554.59;6218581;22;20365;-72
2022/10/15 09:16:39;;;;;;;26.02;15.57;;;;;;;18.86;66.96;100559.38;6220163;22;20282;-72
2022/10/15 09:19:15;;;;;;;24.15;14.70;;;;;;;18.93;66.74;100552.16;6249612;22;20233;-72
2022/10/15 09:21:41;;;;;;;26.92;15.45;;;;;;;18.53;69.14;100554.91;6239657;22;20218;-73
2022/10/15 09:24:10;;;;;;;22.35;14.23;;;;;;;18.80;68.25;100556.91;6250023;22;20351;-72
2022/10/15 09:27:02;;;;;;;23.50;14.40;;;;;;;18.78;68.73;100550.81;6244143;22;20107;-72
2022/10/15 09:29:45;;;;;;;23.15;14.57;;;;;;;18.64;69.47;100550.28;6235876;22;20029;-71
2022/10/15 09:32:22;;;;;;;21.95;13.98;;;;;;;18.85;69.78;100540.91;6245915;22;20007;-71
2022/10/15 09:34:52;;;;;;;20.88;13.35;;;;;;;19.09;69.39;100542.91;6247423;22;20061;-71
2022/10/15 09:37:35;;;;;;;23.23;13.80;;;;;;;18.72;69.87;100540.41;6247587;22;20000;-70
2022/10/15 09:40:27;;;;;;;21.48;13.10;;;;;;;18.79;69.90;100543.72;6249187;22;20697;-72
2022/10/15 09:42:56;;;;;;;20.65;12.98;;;;;;;18.97;69.27;100535.31;6221313;22;20309;-71
2022/10/15 09:45:25;;;;;;;20.45;13.55;;;;;;;18.95;69.45;100539.78;6236716;22;20613;-71
2022/10/15 09:47:51;;;;;;;19.13;12.65;;;;;;;19.01;69.95;100540.50;6252523;22;21046;-71
2022/10/15 09:50:17;;;;;;;21.58;11.73;;;;;;;19.10;69.75;100539.38;6219503;22;20371;-72
2022/10/15 09:52:57;;;;;;;19.63;12.15;;;;;;;19.00;70.12;100532.59;6251028;22;20087;-71
2022/10/15 09:55:35;;;;;;;18.33;10.32;;;;;;;18.56;70.89;100536.38;6242572;22;19996;-71
2022/10/15 09:58:07;;;;;;;16.92;10.15;;;;;;;18.73;71.25;100528.03;6225100;22;20039;-70
2022/10/15 10:00:53;;;;;;;15.75;9.63;;;;;;;18.71;70.92;100530.72;6245886;22;20057;-70
2022/10/15 10:03:20;;;;;;;14.20;8.95;;;;;;;18.88;70.83;100528.53;6241444;22;20070;-71
2022/10/15 10:05:47;;;;;;;12.32;8.00;;;;;;;18.89;70.00;100529.38;6243828;22;20343;-71
2022/10/15 10:08:23;;;;;;;13.98;8.55;;;;;;;18.56;71.60;100528.47;6245428;22;20276;-72
2022/10/15 10:10:55;;;;;;;13.20;8.07;;;;;;;18.61;71.71;100529.22;6248900;22;20051;-71
2022/10/15 10:13:31;;;;;;;12.60;7.75;;;;;;;18.93;71.05;100531.91;6244125;22;20008;-71
2022/10/15 10:16:07;;;;;;;12.70;7.45;;;;;;;18.99;70.77;100530.88;6243968;22;20018;-71
2022/10/15 10:18:33;;;;;;;10.27;7.10;;;;;;;18.95;70.97;100534.50;6222316;22;20431;-71
2022/10/15 10:21:01;;;;;;;11.15;6.75;;;;;;;18.94;70.63;100538.94;6212735;22;20015;-71
2022/10/15 10:23:33;;;;;;;10.43;6.32;;;;;;;18.91;70.91;100536.34;6243811;22;20003;-70
2022/10/15 10:26:00;;;;;;;9.88;5.90;;;;;;;18.91;70.87;100533.72;6213730;22;20015;-71
2022/10/15 10:28:48;;;;;;;9.82;5.75;;;;;;;18.77;71.48;100532.34;6250633;22;20023;-70
2022/10/15 10:31:14;;;;;;;8.00;5.38;;;;;;;18.78;71.60;100532.31;6248004;22;20050;-72
2022/10/15 10:33:49;;;;;;;8.05;5.13;;;;;;;18.86;71.30;100532.97;6239059;22;20640;-72
2022/10/15 10:36:41;;;;;;;7.25;4.70;;;;;;;18.92;71.08;100534.56;6245093;22;20251;-70
2022/10/15 10:39:09;;;;;;;6.07;4.15;;;;;;;18.66;71.34;100523.84;6240788;22;20011;-72
2022/10/15 10:42:22;;;;;;;6.00;4.05;;;;;;;18.95;71.65;100538.03;6216830;22;20494;-72
2022/10/15 10:44:47;;;;;;;5.35;3.70;;;;;;;18.75;71.97;100529.75;6242488;22;20458;-70
2022/10/15 10:47:25;;;;;;;5.80;3.70;;;;;;;18.88;71.48;100528.53;6248817;22;20567;-71
2022/10/15 10:49:53;;;;;;;7.82;3.70;;;;;;;18.95;71.41;100523.94;6243654;22;20004;-69
2022/10/15 10:52:26;;;;;;;5.55;3.80;;;;;;;18.85;71.52;100519.78;6246650;22;20010;-70
2022/10/15 10:55:18;;;;;;;6.82;3.75;;;;;;;18.79;71.93;100522.59;6247151;22;20015;-70
2022/10/15 10:57:46;;;;;;;5.63;3.53;;;;;;;19.01;71.82;100521.13;6239989;22;20038;-70
2022/10/15 11:00:17;;;;;;;5.38;3.78;;;;;;;18.85;71.83;100519.78;6221409;22;20008;-71
2022/10/15 11:02:42;;;;;;;4.93;3.60;;;;;;;18.97;71.65;100511.53;6243142;22;20011;-71
2022/10/15 11:05:11;;;;;;;5.68;3.65;;;;;;;18.74;72.42;100514.78;6246958;22;20545;-71
2022/10/15 11:07:50;;;;;;;4.75;3.53;;;;;;;18.77;72.20;100511.22;6238848;22;20007;-70
2022/10/15 11:10:31;;;;;;;5.45;3.80;;;;;;;18.85;72.15;100511.88;6247891;22;20008;-70
2022/10/15 11:13:02;;;;;;;4.95;3.60;;;;;;;19.00;72.01;100509.69;6220938;22;20008;-70
2022/10/15 11:15:47;;;;;;;5.70;3.80;;;;;;;19.08;71.91;100501.59;6239139;22;20133;-70
2022/10/15 11:18:34;;;;;;;5.95;3.85;;;;;;;18.89;72.33;100502.97;6248171;22;20073;-71
2022/10/15 11:21:15;;;;;;;5.65;3.50;;;;;;;19.23;71.85;100497.63;6243325;22;20280;-71
2022/10/15 11:23:59;;;;;;;4.95;3.40;;;;;;;19.02;72.20;100501.75;6246556;22;20399;-71